This is the latest recevied weather packets stored in our database for station/object K1BES. If no packets are shown the sender has not sent any weather packets the latest 10 day(s).
| Time | Temp. | Humidity | Pressure | Rain* | Wind** | Luminosity | Snow |
|---|---|---|---|---|---|---|---|
| 1787495459 | 31.67° C | 68% | 1018.8 hPa | 0 mm | - | 288 W/m² | - |
| 1787495155 | 31.67° C | 67% | 1018.8 hPa | 0 mm | - | 259 W/m² | - |
| 1787494850 | 32.22° C | 67% | 1018.6 hPa | 0 mm | - | 289 W/m² | - |
| 1787494545 | 32.22° C | 67% | 1018.8 hPa | 0 mm | - | 346 W/m² | - |
| 1787494240 | 32.22° C | 65% | 1018.6 hPa | 0 mm | - | 353 W/m² | - |
| 1787493936 | 32.78° C | 64% | 1018.7 hPa | 0 mm | - | 355 W/m² | - |
| 1787493631 | 33.33° C | 63% | 1018.9 hPa | 0 mm | - | 479 W/m² | - |
| 1787493326 | 33.33° C | 63% | 1018.9 hPa | 0 mm | - | 484 W/m² | - |
| 1787493023 | 32.78° C | 64% | 1019 hPa | 0 mm | - | 519 W/m² | - |
| 1787492718 | 32.78° C | 65% | 1018.9 hPa | 0 mm | - | 470 W/m² | - |
| 1787492415 | 31.67° C | 68% | 1019.1 hPa | 0 mm | - | 443 W/m² | - |
| 1787492114 | 31.67° C | 67% | 1018.9 hPa | 0 mm | - | 333 W/m² | - |
| 1787491810 | 31.67° C | 68% | 1019.1 hPa | 0 mm | - | 272 W/m² | - |
| 1787491505 | 31.11° C | 69% | 1018.8 hPa | 0 mm | - | 391 W/m² | - |
| 1787491200 | 31.11° C | 69% | 1019.1 hPa | 0 mm | - | 127 W/m² | - |
| 1787490896 | 30.56° C | 70% | 1018.9 hPa | 0 mm | - | 136 W/m² | - |
| 1787490595 | 30° C | 73% | 1018.9 hPa | 0 mm | - | 262 W/m² | - |
| 1787490290 | 30° C | 73% | 1019.1 hPa | 0 mm | - | 126 W/m² | - |
| 1787489989 | 30° C | 73% | 1019.1 hPa | 0 mm | - | 104 W/m² | - |
| 1787489684 | 30° C | 74% | 1019 hPa | 0 mm | - | 99 W/m² | - |
| 1787489381 | 30° C | 74% | 1019 hPa | 0 mm | - | 101 W/m² | - |
| 1787489076 | 30° C | 73% | 1018.9 hPa | 0 mm | - | 121 W/m² | - |
| 1787488771 | 29.44° C | 73% | 1018.8 hPa | 0 mm | - | 106 W/m² | - |
| 1787488468 | 29.44° C | 75% | 1018.8 hPa | 0 mm | - | 103 W/m² | - |
| 1787488166 | 29.44° C | 76% | 1018.8 hPa | 0 mm | - | 95 W/m² | - |
* Rain latest hour (hover to see other rain measurements)
** Current wind speed in m/s (hover to see current wind gust speed)